PWSweather.com
Personal Weather Stations
Station Observations
LAKENACI1
Oak Shores Lake Nacimiento, Bradley, CA 93426

Oak Shores Lake NacimientoBradley, CA 93426

Lat: 35.749704, Lon: -120.988075

Elevation: 811

Station Type: Rain wise MK-III

https://www.rainwise.net/weather/JMConstructionOS

Latest ConditionsUpdated 10:14:00 PM PDT Wednesday, Jun 26, 2019
Currently Today's Max Today's Min Today's Average
Temperature 67.0°F19.4°C 86.5°F30.3°C 50.7°F10.4°C 67.5°F19.7°C
Dew Point 46.1°F7.8°C 54.1°F12.3°C 39.1°F3.9°C 49.1°F9.5°C
Winds Calm Calm 5.4 mph -8.7 kmh - - 1.7 mph 2.7 kmh
Wind Gusts -- -- - -
Humidity 47% 94% 26% 59%
Pressure 29.14 in986.8 mb 29.14 in986.8 mb 29.06 in984.1 mb -
Hour Temp Dew Point Humidity Winds Wind Gusts Pressure Precip Precip Rate Daily Precip Total
10:14 PM 67.0°F19.4°C 46.1°F7.8°C 47% Calm Calm -- 29.14 in986.8 mb 0.00 in0.0 mm 0.00 in0.0 mm 0.00 in0.0 mm
10:09 PM 66.8°F19.3°C 47.0°F8.3°C 49% 2.7 mph WSW4.3 kmh WSW -- 29.14 in986.8 mb 0.00 in0.0 mm 0.00 in0.0 mm 0.00 in0.0 mm
10:03 PM 67.3°F19.6°C 48.0°F8.9°C 50% Calm Calm -- 29.13 in986.5 mb 0.00 in0.0 mm 0.00 in0.0 mm 0.00 in0.0 mm
09:58 PM 67.7°F19.8°C 48.4°F9.1°C 50% 1.6 mph W2.6 kmh W -- 29.13 in986.5 mb 0.00 in0.0 mm 0.00 in0.0 mm 0.00 in0.0 mm
09:53 PM 68.0°F20.0°C 48.1°F8.9°C 49% 1.0 mph WNW1.6 kmh WNW -- 29.13 in986.5 mb 0.00 in0.0 mm 0.00 in0.0 mm 0.00 in0.0 mm
09:47 PM 68.2°F20.1°C 49.9°F9.9°C 52% 1.9 mph SW3.1 kmh SW -- 29.13 in986.5 mb 0.00 in0.0 mm 0.00 in0.0 mm 0.00 in0.0 mm
09:42 PM 68.1°F20.1°C 49.3°F9.6°C 51% 1.5 mph W2.4 kmh W -- 29.13 in986.5 mb 0.00 in0.0 mm 0.00 in0.0 mm 0.00 in0.0 mm
09:37 PM 68.1°F20.1°C 49.8°F9.9°C 52% 0.4 mph SW0.6 kmh SW -- 29.13 in986.5 mb 0.00 in0.0 mm 0.00 in0.0 mm 0.00 in0.0 mm
09:31 PM 68.6°F20.3°C 49.7°F9.8°C 51% 0.3 mph W0.5 kmh W -- 29.13 in986.5 mb 0.00 in0.0 mm 0.00 in0.0 mm 0.00 in0.0 mm
09:26 PM 68.7°F20.4°C 49.3°F9.6°C 50% Calm Calm -- 29.12 in986.1 mb 0.00 in0.0 mm 0.00 in0.0 mm 0.00 in0.0 mm
09:21 PM 68.6°F20.3°C 48.1°F8.9°C 48% 1.0 mph WSW1.6 kmh WSW -- 29.12 in986.1 mb 0.00 in0.0 mm 0.00 in0.0 mm 0.00 in0.0 mm
09:15 PM 68.5°F20.3°C 46.3°F7.9°C 45% 0.7 mph W1.1 kmh W -- 29.11 in985.8 mb 0.00 in0.0 mm 0.00 in0.0 mm 0.00 in0.0 mm
09:10 PM 68.7°F20.4°C 44.0°F6.7°C 41% 0.4 mph WNW0.6 kmh WNW -- 29.11 in985.8 mb 0.00 in0.0 mm 0.00 in0.0 mm 0.00 in0.0 mm
09:05 PM 69.0°F20.6°C 42.3°F5.7°C 38% Calm Calm -- 29.11 in985.8 mb 0.00 in0.0 mm 0.00 in0.0 mm 0.00 in0.0 mm
08:59 PM 69.5°F20.8°C 41.4°F5.2°C 36% Calm Calm -- 29.11 in985.8 mb 0.00 in0.0 mm 0.00 in0.0 mm 0.00 in0.0 mm
08:54 PM 69.5°F20.8°C 42.1°F5.6°C 37% 0.9 mph WNW1.4 kmh WNW -- 29.11 in985.8 mb 0.00 in0.0 mm 0.00 in0.0 mm 0.00 in0.0 mm
08:48 PM 69.7°F20.9°C 41.5°F5.3°C 36% Calm Calm -- 29.10 in985.4 mb 0.00 in0.0 mm 0.00 in0.0 mm 0.00 in0.0 mm
08:43 PM 70.3°F21.3°C 39.8°F4.3°C 33% Calm Calm -- 29.10 in985.4 mb 0.00 in0.0 mm 0.00 in0.0 mm 0.00 in0.0 mm
08:37 PM 71.1°F21.7°C 39.7°F4.3°C 32% 1.4 mph NNE2.3 kmh NNE -- 29.10 in985.4 mb 0.00 in0.0 mm 0.00 in0.0 mm 0.00 in0.0 mm
08:31 PM 72.0°F22.2°C 39.7°F4.3°C 31% 1.7 mph ENE2.7 kmh ENE -- 29.10 in985.4 mb 0.00 in0.0 mm 0.00 in0.0 mm 0.00 in0.0 mm
08:26 PM 72.5°F22.5°C 40.1°F4.5°C 31% Calm Calm -- 29.09 in985.1 mb 0.00 in0.0 mm 0.00 in0.0 mm 0.00 in0.0 mm
08:20 PM 72.7°F22.6°C 40.3°F4.6°C 31% Calm Calm -- 29.09 in985.1 mb 0.00 in0.0 mm 0.00 in0.0 mm 0.00 in0.0 mm
08:15 PM 73.1°F22.8°C 39.8°F4.3°C 30% 2.3 mph NNW3.7 kmh NNW -- 29.09 in985.1 mb 0.00 in0.0 mm 0.00 in0.0 mm 0.00 in0.0 mm
07:56 PM 74.4°F23.6°C 39.2°F4.0°C 28% 2.4 mph NE3.9 kmh NE -- 29.09 in985.1 mb 0.00 in0.0 mm 0.00 in0.0 mm 0.00 in0.0 mm
07:49 PM 75.1°F23.9°C 39.8°F4.3°C 28% 1.6 mph NNE2.6 kmh NNE -- 29.08 in984.8 mb 0.00 in0.0 mm 0.00 in0.0 mm 0.00 in0.0 mm
07:44 PM 75.7°F24.3°C 39.3°F4.1°C 27% 0.3 mph NNE0.5 kmh NNE -- 29.09 in985.1 mb 0.00 in0.0 mm 0.00 in0.0 mm 0.00 in0.0 mm
07:38 PM 76.6°F24.8°C 39.1°F3.9°C 26% 3.0 mph ENE4.8 kmh ENE -- 29.09 in985.1 mb 0.00 in0.0 mm 0.00 in0.0 mm 0.00 in0.0 mm
07:33 PM 77.2°F25.1°C 39.6°F4.2°C 26% 0.8 mph E1.3 kmh E -- 29.08 in984.8 mb 0.00 in0.0 mm 0.00 in0.0 mm 0.00 in0.0 mm
07:28 PM 77.5°F25.3°C 39.9°F4.4°C 26% Calm Calm -- 29.08 in984.8 mb 0.00 in0.0 mm 0.00 in0.0 mm 0.00 in0.0 mm
07:23 PM 78.1°F25.6°C 40.4°F4.7°C 26% Calm Calm -- 29.08 in984.8 mb 0.00 in0.0 mm 0.00 in0.0 mm 0.00 in0.0 mm
07:17 PM 78.4°F25.8°C 40.7°F4.8°C 26% 2.1 mph ENE3.4 kmh ENE -- 29.08 in984.8 mb 0.00 in0.0 mm 0.00 in0.0 mm 0.00 in0.0 mm
07:12 PM 78.6°F25.9°C 40.8°F4.9°C 26% 3.5 mph NW5.6 kmh NW -- 29.08 in984.8 mb 0.00 in0.0 mm 0.00 in0.0 mm 0.00 in0.0 mm
07:06 PM 80.0°F26.7°C 42.0°F5.6°C 26% 3.0 mph WSW4.8 kmh WSW -- 29.08 in984.8 mb 0.00 in0.0 mm 0.00 in0.0 mm 0.00 in0.0 mm
07:01 PM 81.2°F27.3°C 45.0°F7.2°C 28% Calm Calm -- 29.08 in984.8 mb 0.00 in0.0 mm 0.00 in0.0 mm 0.00 in0.0 mm
06:55 PM 81.6°F27.6°C 45.3°F7.4°C 28% 0.5 mph SSE0.8 kmh SSE -- 29.08 in984.8 mb 0.00 in0.0 mm 0.00 in0.0 mm 0.00 in0.0 mm
06:50 PM 81.4°F27.4°C 45.1°F7.3°C 28% Calm Calm -- 29.07 in984.4 mb 0.00 in0.0 mm 0.00 in0.0 mm 0.00 in0.0 mm
06:44 PM 81.2°F27.3°C 44.0°F6.7°C 27% 1.0 mph ENE1.6 kmh ENE -- 29.07 in984.4 mb 0.00 in0.0 mm 0.00 in0.0 mm 0.00 in0.0 mm
06:38 PM 81.2°F27.3°C 45.9°F7.7°C 29% 1.6 mph WSW2.6 kmh WSW -- 29.07 in984.4 mb 0.00 in0.0 mm 0.00 in0.0 mm 0.00 in0.0 mm
06:33 PM 81.6°F27.6°C 47.1°F8.4°C 30% 3.5 mph SW5.6 kmh SW -- 29.07 in984.4 mb 0.00 in0.0 mm 0.00 in0.0 mm 0.00 in0.0 mm
06:27 PM 81.9°F27.7°C 48.3°F9.1°C 31% 1.0 mph SW1.6 kmh SW -- 29.07 in984.4 mb 0.00 in0.0 mm 0.00 in0.0 mm 0.00 in0.0 mm
06:21 PM 81.8°F27.7°C 48.2°F9.0°C 31% 2.3 mph SW3.7 kmh SW -- 29.07 in984.4 mb 0.00 in0.0 mm 0.00 in0.0 mm 0.00 in0.0 mm
06:16 PM 81.4°F27.4°C 47.8°F8.8°C 31% 2.0 mph S3.2 kmh S -- 29.07 in984.4 mb 0.00 in0.0 mm 0.00 in0.0 mm 0.00 in0.0 mm
06:10 PM 82.0°F27.8°C 48.4°F9.1°C 31% 3.5 mph WSW5.6 kmh WSW -- 29.07 in984.4 mb 0.00 in0.0 mm 0.00 in0.0 mm 0.00 in0.0 mm
06:05 PM 82.9°F28.3°C 47.4°F8.6°C 29% 3.6 mph WNW5.8 kmh WNW -- 29.07 in984.4 mb 0.00 in0.0 mm 0.00 in0.0 mm 0.00 in0.0 mm
05:59 PM 83.0°F28.3°C 48.3°F9.1°C 30% 3.3 mph N5.3 kmh N -- 29.07 in984.4 mb 0.00 in0.0 mm 0.00 in0.0 mm 0.00 in0.0 mm
05:54 PM 82.6°F28.1°C 47.1°F8.4°C 29% 0.5 mph NE0.8 kmh NE -- 29.07 in984.4 mb 0.00 in0.0 mm 0.00 in0.0 mm 0.00 in0.0 mm
05:48 PM 82.8°F28.2°C 47.3°F8.5°C 29% 2.7 mph SSW4.3 kmh SSW -- 29.07 in984.4 mb 0.00 in0.0 mm 0.00 in0.0 mm 0.00 in0.0 mm
05:42 PM 84.3°F29.1°C 47.6°F8.7°C 28% 3.9 mph WNW6.3 kmh WNW -- 29.07 in984.4 mb 0.00 in0.0 mm 0.00 in0.0 mm 0.00 in0.0 mm
05:37 PM 84.6°F29.2°C 46.9°F8.3°C 27% 2.0 mph WSW3.2 kmh WSW -- 29.07 in984.4 mb 0.00 in0.0 mm 0.00 in0.0 mm 0.00 in0.0 mm
05:31 PM 84.7°F29.3°C 47.0°F8.3°C 27% 2.0 mph E3.2 kmh E -- 29.07 in984.4 mb 0.00 in0.0 mm 0.00 in0.0 mm 0.00 in0.0 mm
05:25 PM 84.3°F29.1°C 46.7°F8.2°C 27% 0.9 mph S1.4 kmh S -- 29.07 in984.4 mb 0.00 in0.0 mm 0.00 in0.0 mm 0.00 in0.0 mm
05:20 PM 84.1°F28.9°C 47.4°F8.6°C 28% 1.1 mph S1.8 kmh S -- 29.07 in984.4 mb 0.00 in0.0 mm 0.00 in0.0 mm 0.00 in0.0 mm
05:14 PM 84.0°F28.9°C 47.4°F8.6°C 28% 4.9 mph W7.9 kmh W -- 29.07 in984.4 mb 0.00 in0.0 mm 0.00 in0.0 mm 0.00 in0.0 mm
05:09 PM 83.6°F28.7°C 45.1°F7.3°C 26% 2.0 mph NW3.2 kmh NW -- 29.07 in984.4 mb 0.00 in0.0 mm 0.00 in0.0 mm 0.00 in0.0 mm
05:04 PM 83.9°F28.8°C 45.3°F7.4°C 26% 2.6 mph SW4.2 kmh SW -- 29.07 in984.4 mb 0.00 in0.0 mm 0.00 in0.0 mm 0.00 in0.0 mm
04:58 PM 84.9°F29.4°C 46.2°F7.9°C 26% 5.4 mph SW8.7 kmh SW -- 29.07 in984.4 mb 0.00 in0.0 mm 0.00 in0.0 mm 0.00 in0.0 mm
04:52 PM 85.6°F29.8°C 47.8°F8.8°C 27% 3.5 mph WSW5.6 kmh WSW -- 29.07 in984.4 mb 0.00 in0.0 mm 0.00 in0.0 mm 0.00 in0.0 mm
04:47 PM 85.1°F29.5°C 47.3°F8.5°C 27% Calm Calm -- 29.07 in984.4 mb 0.00 in0.0 mm 0.00 in0.0 mm 0.00 in0.0 mm
04:42 PM 85.2°F29.6°C 46.4°F8.0°C 26% 2.2 mph WNW3.5 kmh WNW -- 29.07 in984.4 mb 0.00 in0.0 mm 0.00 in0.0 mm 0.00 in0.0 mm
04:36 PM 85.0°F29.4°C 47.2°F8.4°C 27% 2.6 mph SW4.2 kmh SW -- 29.08 in984.8 mb 0.00 in0.0 mm 0.00 in0.0 mm 0.00 in0.0 mm
04:31 PM 84.5°F29.2°C 46.8°F8.2°C 27% 2.0 mph NNW3.2 kmh NNW -- 29.07 in984.4 mb 0.00 in0.0 mm 0.00 in0.0 mm 0.00 in0.0 mm
04:26 PM 85.0°F29.4°C 48.2°F9.0°C 28% 3.8 mph WSW6.1 kmh WSW -- 29.07 in984.4 mb 0.00 in0.0 mm 0.00 in0.0 mm 0.00 in0.0 mm
04:21 PM 85.5°F29.7°C 48.6°F9.2°C 28% 5.4 mph WSW8.7 kmh WSW -- 29.07 in984.4 mb 0.00 in0.0 mm 0.00 in0.0 mm 0.00 in0.0 mm
04:16 PM 85.6°F29.8°C 48.7°F9.3°C 28% 1.2 mph ESE1.9 kmh ESE -- 29.08 in984.8 mb 0.00 in0.0 mm 0.00 in0.0 mm 0.00 in0.0 mm
04:11 PM 85.7°F29.8°C 48.8°F9.3°C 28% 2.6 mph SW4.2 kmh SW -- 29.07 in984.4 mb 0.00 in0.0 mm 0.00 in0.0 mm 0.00 in0.0 mm
04:05 PM 85.5°F29.7°C 47.7°F8.7°C 27% 2.1 mph WSW3.4 kmh WSW -- 29.08 in984.8 mb 0.00 in0.0 mm 0.00 in0.0 mm 0.00 in0.0 mm
04:00 PM 86.0°F30.0°C 49.1°F9.5°C 28% 2.0 mph NNW3.2 kmh NNW -- 29.08 in984.8 mb 0.00 in0.0 mm 0.00 in0.0 mm 0.00 in0.0 mm
03:54 PM 86.5°F30.3°C 51.4°F10.8°C 30% 2.2 mph S3.5 kmh S -- 29.08 in984.8 mb 0.00 in0.0 mm 0.00 in0.0 mm 0.00 in0.0 mm
03:48 PM 86.5°F30.3°C 52.2°F11.2°C 31% 2.9 mph SSW4.7 kmh SSW -- 29.08 in984.8 mb 0.00 in0.0 mm 0.00 in0.0 mm 0.00 in0.0 mm
03:42 PM 85.7°F29.8°C 51.6°F10.9°C 31% 3.8 mph SSE6.1 kmh SSE -- 29.08 in984.8 mb 0.00 in0.0 mm 0.00 in0.0 mm 0.00 in0.0 mm
03:37 PM 85.2°F29.6°C 51.1°F10.6°C 31% 2.9 mph SW4.7 kmh SW -- 29.08 in984.8 mb 0.00 in0.0 mm 0.00 in0.0 mm 0.00 in0.0 mm
03:31 PM 85.3°F29.6°C 52.1°F11.2°C 32% 2.6 mph W4.2 kmh W -- 29.09 in985.1 mb 0.00 in0.0 mm 0.00 in0.0 mm 0.00 in0.0 mm
03:25 PM 85.7°F29.8°C 52.4°F11.3°C 32% 2.2 mph W3.5 kmh W -- 29.09 in985.1 mb 0.00 in0.0 mm 0.00 in0.0 mm 0.00 in0.0 mm
03:20 PM 85.7°F29.8°C 52.4°F11.3°C 32% 3.5 mph SE5.6 kmh SE -- 29.08 in984.8 mb 0.00 in0.0 mm 0.00 in0.0 mm 0.00 in0.0 mm
03:15 PM 84.7°F29.3°C 51.5°F10.8°C 32% 1.8 mph WNW2.9 kmh WNW -- 29.09 in985.1 mb 0.00 in0.0 mm 0.00 in0.0 mm 0.00 in0.0 mm
03:10 PM 84.3°F29.1°C 52.0°F11.1°C 33% 1.1 mph SE1.8 kmh SE -- 29.09 in985.1 mb 0.00 in0.0 mm 0.00 in0.0 mm 0.00 in0.0 mm
03:04 PM 85.1°F29.5°C 51.9°F11.1°C 32% 2.1 mph W3.4 kmh W -- 29.09 in985.1 mb 0.00 in0.0 mm 0.00 in0.0 mm 0.00 in0.0 mm
02:59 PM 85.8°F29.9°C 52.5°F11.4°C 32% 2.9 mph WSW4.7 kmh WSW -- 29.09 in985.1 mb 0.00 in0.0 mm 0.00 in0.0 mm 0.00 in0.0 mm
02:53 PM 85.8°F29.9°C 52.5°F11.4°C 32% 2.5 mph SSW4.0 kmh SSW -- 29.09 in985.1 mb 0.00 in0.0 mm 0.00 in0.0 mm 0.00 in0.0 mm
02:47 PM 85.6°F29.8°C 53.2°F11.8°C 33% 2.8 mph SW4.5 kmh SW -- 29.09 in985.1 mb 0.00 in0.0 mm 0.00 in0.0 mm 0.00 in0.0 mm
02:41 PM 85.3°F29.6°C 51.2°F10.7°C 31% 1.1 mph WSW1.8 kmh WSW -- 29.09 in985.1 mb 0.00 in0.0 mm 0.00 in0.0 mm 0.00 in0.0 mm
02:36 PM 85.2°F29.6°C 49.3°F9.6°C 29% 1.0 mph W1.6 kmh W -- 29.09 in985.1 mb 0.00 in0.0 mm 0.00 in0.0 mm 0.00 in0.0 mm
02:31 PM 84.7°F29.3°C 48.0°F8.9°C 28% 2.7 mph S4.3 kmh S -- 29.09 in985.1 mb 0.00 in0.0 mm 0.00 in0.0 mm 0.00 in0.0 mm
02:25 PM 84.6°F29.2°C 46.9°F8.3°C 27% 2.4 mph WSW3.9 kmh WSW -- 29.09 in985.1 mb 0.00 in0.0 mm 0.00 in0.0 mm 0.00 in0.0 mm
02:19 PM 85.0°F29.4°C 46.2°F7.9°C 26% 3.0 mph WSW4.8 kmh WSW -- 29.09 in985.1 mb 0.00 in0.0 mm 0.00 in0.0 mm 0.00 in0.0 mm
02:14 PM 84.4°F29.1°C 45.7°F7.6°C 26% 1.9 mph WSW3.1 kmh WSW -- 29.09 in985.1 mb 0.00 in0.0 mm 0.00 in0.0 mm 0.00 in0.0 mm
02:08 PM 83.6°F28.7°C 47.0°F8.3°C 28% 0.9 mph S1.4 kmh S -- 29.09 in985.1 mb 0.00 in0.0 mm 0.00 in0.0 mm 0.00 in0.0 mm
02:02 PM 83.8°F28.8°C 47.2°F8.4°C 28% 3.5 mph W5.6 kmh W -- 29.09 in985.1 mb 0.00 in0.0 mm 0.00 in0.0 mm 0.00 in0.0 mm
01:57 PM 83.7°F28.7°C 47.1°F8.4°C 28% 0.6 mph WSW1.0 kmh WSW -- 29.09 in985.1 mb 0.00 in0.0 mm 0.00 in0.0 mm 0.00 in0.0 mm
01:52 PM 83.6°F28.7°C 48.9°F9.4°C 30% 2.3 mph WSW3.7 kmh WSW -- 29.09 in985.1 mb 0.00 in0.0 mm 0.00 in0.0 mm 0.00 in0.0 mm
01:46 PM 83.2°F28.4°C 48.5°F9.2°C 30% 3.0 mph WSW4.8 kmh WSW -- 29.10 in985.4 mb 0.00 in0.0 mm 0.00 in0.0 mm 0.00 in0.0 mm
01:41 PM 83.2°F28.4°C 48.5°F9.2°C 30% 3.5 mph SSE5.6 kmh SSE -- 29.10 in985.4 mb 0.00 in0.0 mm 0.00 in0.0 mm 0.00 in0.0 mm
01:35 PM 82.8°F28.2°C 49.0°F9.4°C 31% 0.9 mph SW1.4 kmh SW -- 29.10 in985.4 mb 0.00 in0.0 mm 0.00 in0.0 mm 0.00 in0.0 mm
01:30 PM 82.3°F27.9°C 47.7°F8.7°C 30% 2.7 mph SW4.3 kmh SW -- 29.10 in985.4 mb 0.00 in0.0 mm 0.00 in0.0 mm 0.00 in0.0 mm
01:25 PM 81.7°F27.6°C 48.1°F8.9°C 31% 3.5 mph WSW5.6 kmh WSW -- 29.10 in985.4 mb 0.00 in0.0 mm 0.00 in0.0 mm 0.00 in0.0 mm
01:19 PM 81.4°F27.4°C 47.8°F8.8°C 31% 1.7 mph SW2.7 kmh SW -- 29.10 in985.4 mb 0.00 in0.0 mm 0.00 in0.0 mm 0.00 in0.0 mm
01:13 PM 81.9°F27.7°C 47.4°F8.6°C 30% 3.5 mph WSW5.6 kmh WSW -- 29.10 in985.4 mb 0.00 in0.0 mm 0.00 in0.0 mm 0.00 in0.0 mm
01:08 PM 82.0°F27.8°C 48.4°F9.1°C 31% 2.0 mph SW3.2 kmh SW -- 29.10 in985.4 mb 0.00 in0.0 mm 0.00 in0.0 mm 0.00 in0.0 mm
01:03 PM 81.5°F27.5°C 48.8°F9.3°C 32% 0.5 mph S0.8 kmh S -- 29.10 in985.4 mb 0.00 in0.0 mm 0.00 in0.0 mm 0.00 in0.0 mm
12:57 PM 81.0°F27.2°C 50.0°F10.0°C 34% 2.9 mph WSW4.7 kmh WSW -- 29.10 in985.4 mb 0.00 in0.0 mm 0.00 in0.0 mm 0.00 in0.0 mm
12:52 PM 80.0°F26.7°C 49.1°F9.5°C 34% 1.1 mph SW1.8 kmh SW -- 29.10 in985.4 mb 0.00 in0.0 mm 0.00 in0.0 mm 0.00 in0.0 mm
12:47 PM 79.7°F26.5°C 48.0°F8.9°C 33% 2.9 mph SW4.7 kmh SW -- 29.11 in985.8 mb 0.00 in0.0 mm 0.00 in0.0 mm 0.00 in0.0 mm
12:42 PM 80.1°F26.7°C 49.2°F9.6°C 34% 1.4 mph WSW2.3 kmh WSW -- 29.10 in985.4 mb 0.00 in0.0 mm 0.00 in0.0 mm 0.00 in0.0 mm
12:36 PM 79.5°F26.4°C 49.4°F9.7°C 35% 2.8 mph SW4.5 kmh SW -- 29.10 in985.4 mb 0.00 in0.0 mm 0.00 in0.0 mm 0.00 in0.0 mm
12:30 PM 78.5°F25.8°C 48.6°F9.2°C 35% 0.2 mph E0.3 kmh E -- 29.11 in985.8 mb 0.00 in0.0 mm 0.00 in0.0 mm 0.00 in0.0 mm
12:25 PM 78.3°F25.7°C 49.1°F9.5°C 36% 3.2 mph SSE5.1 kmh SSE -- 29.11 in985.8 mb 0.00 in0.0 mm 0.00 in0.0 mm 0.00 in0.0 mm
12:19 PM 78.2°F25.7°C 49.0°F9.4°C 36% 1.4 mph SSE2.3 kmh SSE -- 29.11 in985.8 mb 0.00 in0.0 mm 0.00 in0.0 mm 0.00 in0.0 mm
12:13 PM 78.5°F25.8°C 49.3°F9.6°C 36% 2.1 mph S3.4 kmh S -- 29.11 in985.8 mb 0.00 in0.0 mm 0.00 in0.0 mm 0.00 in0.0 mm
12:08 PM 78.2°F25.7°C 49.8°F9.9°C 37% 2.8 mph SSW4.5 kmh SSW -- 29.11 in985.8 mb 0.00 in0.0 mm 0.00 in0.0 mm 0.00 in0.0 mm
12:02 PM 77.6°F25.3°C 50.7°F10.4°C 39% 2.1 mph S3.4 kmh S -- 29.11 in985.8 mb 0.00 in0.0 mm 0.00 in0.0 mm 0.00 in0.0 mm
11:57 AM 77.1°F25.1°C 50.2°F10.1°C 39% 2.5 mph SSE4.0 kmh SSE -- 29.11 in985.8 mb 0.00 in0.0 mm 0.00 in0.0 mm 0.00 in0.0 mm
11:52 AM 76.5°F24.7°C 50.4°F10.2°C 40% 1.2 mph WSW1.9 kmh WSW -- 29.11 in985.8 mb 0.00 in0.0 mm 0.00 in0.0 mm 0.00 in0.0 mm
11:46 AM 76.0°F24.4°C 51.2°F10.7°C 42% 0.8 mph SSW1.3 kmh SSW -- 29.11 in985.8 mb 0.00 in0.0 mm 0.00 in0.0 mm 0.00 in0.0 mm
11:40 AM 75.9°F24.4°C 51.1°F10.6°C 42% 2.3 mph SW3.7 kmh SW -- 29.11 in985.8 mb 0.00 in0.0 mm 0.00 in0.0 mm 0.00 in0.0 mm
11:35 AM 75.8°F24.3°C 52.3°F11.3°C 44% 2.1 mph S3.4 kmh S -- 29.12 in986.1 mb 0.00 in0.0 mm 0.00 in0.0 mm 0.00 in0.0 mm
11:30 AM 75.1°F23.9°C 51.7°F10.9°C 44% 2.5 mph SSE4.0 kmh SSE -- 29.12 in986.1 mb 0.00 in0.0 mm 0.00 in0.0 mm 0.00 in0.0 mm
11:24 AM 74.5°F23.6°C 51.7°F10.9°C 45% 1.2 mph WSW1.9 kmh WSW -- 29.12 in986.1 mb 0.00 in0.0 mm 0.00 in0.0 mm 0.00 in0.0 mm
11:18 AM 73.4°F23.0°C 51.9°F11.1°C 47% 2.1 mph ESE3.4 kmh ESE -- 29.12 in986.1 mb 0.00 in0.0 mm 0.00 in0.0 mm 0.00 in0.0 mm
11:12 AM 72.4°F22.4°C 51.6°F10.9°C 48% 1.9 mph SW3.1 kmh SW -- 29.12 in986.1 mb 0.00 in0.0 mm 0.00 in0.0 mm 0.00 in0.0 mm
11:07 AM 72.2°F22.3°C 52.0°F11.1°C 49% 2.4 mph SW3.9 kmh SW -- 29.12 in986.1 mb 0.00 in0.0 mm 0.00 in0.0 mm 0.00 in0.0 mm
11:01 AM 71.9°F22.2°C 52.8°F11.6°C 51% 0.4 mph SSE0.6 kmh SSE -- 29.12 in986.1 mb 0.00 in0.0 mm 0.00 in0.0 mm 0.00 in0.0 mm
10:55 AM 71.2°F21.8°C 52.1°F11.2°C 51% 2.2 mph S3.5 kmh S -- 29.12 in986.1 mb 0.00 in0.0 mm 0.00 in0.0 mm 0.00 in0.0 mm
10:49 AM 71.0°F21.7°C 53.0°F11.7°C 53% 0.4 mph SW0.6 kmh SW -- 29.12 in986.1 mb 0.00 in0.0 mm 0.00 in0.0 mm 0.00 in0.0 mm
10:43 AM 70.5°F21.4°C 53.0°F11.7°C 54% 2.2 mph S3.5 kmh S -- 29.12 in986.1 mb 0.00 in0.0 mm 0.00 in0.0 mm 0.00 in0.0 mm
10:38 AM 69.1°F20.6°C 52.2°F11.2°C 55% 1.6 mph S2.6 kmh S -- 29.12 in986.1 mb 0.00 in0.0 mm 0.00 in0.0 mm 0.00 in0.0 mm
10:33 AM 67.4°F19.7°C 51.6°F10.9°C 57% 1.5 mph SSW2.4 kmh SSW -- 29.12 in986.1 mb 0.00 in0.0 mm 0.00 in0.0 mm 0.00 in0.0 mm
10:27 AM 67.2°F19.6°C 51.4°F10.8°C 57% 1.9 mph SW3.1 kmh SW -- 29.12 in986.1 mb 0.00 in0.0 mm 0.00 in0.0 mm 0.00 in0.0 mm
10:21 AM 67.0°F19.4°C 51.7°F10.9°C 58% 2.7 mph SE4.3 kmh SE -- 29.12 in986.1 mb 0.00 in0.0 mm 0.00 in0.0 mm 0.00 in0.0 mm
10:16 AM 66.8°F19.3°C 52.0°F11.1°C 59% 0.6 mph N1.0 kmh N -- 29.13 in986.5 mb 0.00 in0.0 mm 0.00 in0.0 mm 0.00 in0.0 mm
10:10 AM 66.8°F19.3°C 52.0°F11.1°C 59% 2.7 mph SE4.3 kmh SE -- 29.13 in986.5 mb 0.00 in0.0 mm 0.00 in0.0 mm 0.00 in0.0 mm
10:04 AM 66.2°F19.0°C 52.3°F11.3°C 61% 2.1 mph SW3.4 kmh SW -- 29.13 in986.5 mb 0.00 in0.0 mm 0.00 in0.0 mm 0.00 in0.0 mm
09:59 AM 65.8°F18.8°C 52.8°F11.6°C 63% 1.7 mph S2.7 kmh S -- 29.13 in986.5 mb 0.00 in0.0 mm 0.00 in0.0 mm 0.00 in0.0 mm
09:53 AM 65.3°F18.5°C 53.2°F11.8°C 65% 2.4 mph SSE3.9 kmh SSE -- 29.13 in986.5 mb 0.00 in0.0 mm 0.00 in0.0 mm 0.00 in0.0 mm
09:47 AM 64.0°F17.8°C 53.2°F11.8°C 68% 1.8 mph S2.9 kmh S -- 29.13 in986.5 mb 0.00 in0.0 mm 0.00 in0.0 mm 0.00 in0.0 mm
09:41 AM 62.7°F17.1°C 51.6°F10.9°C 67% 2.0 mph SSE3.2 kmh SSE -- 29.13 in986.5 mb 0.00 in0.0 mm 0.00 in0.0 mm 0.00 in0.0 mm
09:35 AM 63.1°F17.3°C 52.4°F11.3°C 68% 2.6 mph SW4.2 kmh SW -- 29.13 in986.5 mb 0.00 in0.0 mm 0.00 in0.0 mm 0.00 in0.0 mm
09:29 AM 63.2°F17.3°C 53.6°F12.0°C 71% 0.2 mph SE0.3 kmh SE -- 29.14 in986.8 mb 0.00 in0.0 mm 0.00 in0.0 mm 0.00 in0.0 mm
09:24 AM 62.5°F16.9°C 54.1°F12.3°C 74% 1.9 mph SSE3.1 kmh SSE -- 29.14 in986.8 mb 0.00 in0.0 mm 0.00 in0.0 mm 0.00 in0.0 mm
09:18 AM 60.6°F15.9°C 53.3°F11.8°C 77% 0.9 mph SSE1.4 kmh SSE -- 29.14 in986.8 mb 0.00 in0.0 mm 0.00 in0.0 mm 0.00 in0.0 mm
09:13 AM 59.5°F15.3°C 52.6°F11.4°C 78% 1.4 mph SSW2.3 kmh SSW -- 29.14 in986.8 mb 0.00 in0.0 mm 0.00 in0.0 mm 0.00 in0.0 mm
09:07 AM 58.4°F14.7°C 52.3°F11.3°C 80% 0.2 mph SW0.3 kmh SW -- 29.14 in986.8 mb 0.00 in0.0 mm 0.00 in0.0 mm 0.00 in0.0 mm
09:01 AM 57.7°F14.3°C 52.2°F11.2°C 82% 1.9 mph S3.1 kmh S -- 29.14 in986.8 mb 0.00 in0.0 mm 0.00 in0.0 mm 0.00 in0.0 mm
08:55 AM 57.1°F13.9°C 52.6°F11.4°C 85% 1.1 mph SSW1.8 kmh SSW -- 29.14 in986.8 mb 0.00 in0.0 mm 0.00 in0.0 mm 0.00 in0.0 mm
08:50 AM 55.8°F13.2°C 51.7°F10.9°C 86% 0.6 mph SSE1.0 kmh SSE -- 29.14 in986.8 mb 0.00 in0.0 mm 0.00 in0.0 mm 0.00 in0.0 mm
08:44 AM 55.2°F12.9°C 51.4°F10.8°C 87% 1.1 mph S1.8 kmh S -- 29.14 in986.8 mb 0.00 in0.0 mm 0.00 in0.0 mm 0.00 in0.0 mm
08:38 AM 54.8°F12.7°C 51.6°F10.9°C 89% 1.4 mph SSE2.3 kmh SSE -- 29.13 in986.5 mb 0.00 in0.0 mm 0.00 in0.0 mm 0.00 in0.0 mm
08:33 AM 54.5°F12.5°C 51.3°F10.7°C 89% 2.1 mph S3.4 kmh S -- 29.13 in986.5 mb 0.00 in0.0 mm 0.00 in0.0 mm 0.00 in0.0 mm
08:27 AM 54.1°F12.3°C 51.2°F10.7°C 90% 1.4 mph ESE2.3 kmh ESE -- 29.13 in986.5 mb 0.00 in0.0 mm 0.00 in0.0 mm 0.00 in0.0 mm
08:22 AM 53.7°F12.1°C 50.8°F10.4°C 90% 2.1 mph SE3.4 kmh SE -- 29.13 in986.5 mb 0.00 in0.0 mm 0.00 in0.0 mm 0.00 in0.0 mm
08:17 AM 53.7°F12.1°C 50.8°F10.4°C 90% 2.8 mph ENE4.5 kmh ENE -- 29.13 in986.5 mb 0.00 in0.0 mm 0.00 in0.0 mm 0.00 in0.0 mm
08:12 AM 53.5°F11.9°C 50.9°F10.5°C 91% 3.7 mph E6.0 kmh E -- 29.13 in986.5 mb 0.00 in0.0 mm 0.00 in0.0 mm 0.00 in0.0 mm
08:06 AM 53.3°F11.8°C 50.7°F10.4°C 91% 3.5 mph ESE5.6 kmh ESE -- 29.13 in986.5 mb 0.00 in0.0 mm 0.00 in0.0 mm 0.00 in0.0 mm
08:01 AM 53.2°F11.8°C 50.9°F10.5°C 92% 2.8 mph SE4.5 kmh SE -- 29.13 in986.5 mb 0.00 in0.0 mm 0.00 in0.0 mm 0.00 in0.0 mm
07:55 AM 53.2°F11.8°C 50.9°F10.5°C 92% 3.4 mph E5.5 kmh E -- 29.12 in986.1 mb 0.00 in0.0 mm 0.00 in0.0 mm 0.00 in0.0 mm
07:49 AM 52.8°F11.6°C 50.2°F10.1°C 91% Calm Calm -- 29.12 in986.1 mb 0.00 in0.0 mm 0.00 in0.0 mm 0.00 in0.0 mm
07:43 AM 52.7°F11.5°C 50.4°F10.2°C 92% 2.6 mph ESE4.2 kmh ESE -- 29.12 in986.1 mb 0.00 in0.0 mm 0.00 in0.0 mm 0.00 in0.0 mm
07:38 AM 52.7°F11.5°C 50.4°F10.2°C 92% 3.8 mph ENE6.1 kmh ENE -- 29.11 in985.8 mb 0.00 in0.0 mm 0.00 in0.0 mm 0.00 in0.0 mm
07:33 AM 52.7°F11.5°C 50.7°F10.4°C 93% 2.5 mph ESE4.0 kmh ESE -- 29.11 in985.8 mb 0.00 in0.0 mm 0.00 in0.0 mm 0.00 in0.0 mm
07:27 AM 52.8°F11.6°C 50.8°F10.4°C 93% 3.1 mph E5.0 kmh E -- 29.11 in985.8 mb 0.00 in0.0 mm 0.00 in0.0 mm 0.00 in0.0 mm
07:21 AM 52.7°F11.5°C 51.0°F10.6°C 94% 0.1 mph SE0.2 kmh SE -- 29.11 in985.8 mb 0.00 in0.0 mm 0.00 in0.0 mm 0.00 in0.0 mm
07:15 AM 52.7°F11.5°C 51.0°F10.6°C 94% 1.3 mph S2.1 kmh S -- 29.11 in985.8 mb 0.00 in0.0 mm 0.00 in0.0 mm 0.00 in0.0 mm
07:10 AM 52.7°F11.5°C 50.7°F10.4°C 93% 2.6 mph S4.2 kmh S -- 29.11 in985.8 mb 0.00 in0.0 mm 0.00 in0.0 mm 0.00 in0.0 mm
07:04 AM 52.6°F11.4°C 50.9°F10.5°C 94% 0.9 mph ESE1.4 kmh ESE -- 29.11 in985.8 mb 0.00 in0.0 mm 0.00 in0.0 mm 0.00 in0.0 mm
06:59 AM 52.6°F11.4°C 50.9°F10.5°C 94% 2.2 mph S3.5 kmh S -- 29.11 in985.8 mb 0.00 in0.0 mm 0.00 in0.0 mm 0.00 in0.0 mm
06:53 AM 52.6°F11.4°C 50.9°F10.5°C 94% 2.4 mph SSE3.9 kmh SSE -- 29.10 in985.4 mb 0.00 in0.0 mm 0.00 in0.0 mm 0.00 in0.0 mm
06:48 AM 52.7°F11.5°C 51.0°F10.6°C 94% 2.6 mph SE4.2 kmh SE -- 29.10 in985.4 mb 0.00 in0.0 mm 0.00 in0.0 mm 0.00 in0.0 mm
06:43 AM 52.7°F11.5°C 50.7°F10.4°C 93% 1.3 mph SE2.1 kmh SE -- 29.10 in985.4 mb 0.00 in0.0 mm 0.00 in0.0 mm 0.00 in0.0 mm
06:37 AM 52.7°F11.5°C 51.0°F10.6°C 94% 2.5 mph SE4.0 kmh SE -- 29.10 in985.4 mb 0.00 in0.0 mm 0.00 in0.0 mm 0.00 in0.0 mm
06:32 AM 52.7°F11.5°C 51.0°F10.6°C 94% 2.4 mph ESE3.9 kmh ESE -- 29.10 in985.4 mb 0.00 in0.0 mm 0.00 in0.0 mm 0.00 in0.0 mm
06:26 AM 52.6°F11.4°C 50.9°F10.5°C 94% 1.2 mph WSW1.9 kmh WSW -- 29.10 in985.4 mb 0.00 in0.0 mm 0.00 in0.0 mm 0.00 in0.0 mm
06:21 AM 52.3°F11.3°C 50.6°F10.3°C 94% Calm Calm -- 29.10 in985.4 mb 0.00 in0.0 mm 0.00 in0.0 mm 0.00 in0.0 mm
06:15 AM 52.2°F11.2°C 50.5°F10.3°C 94% Calm Calm -- 29.09 in985.1 mb 0.00 in0.0 mm 0.00 in0.0 mm 0.00 in0.0 mm
06:10 AM 52.0°F11.1°C 50.3°F10.2°C 94% Calm Calm -- 29.09 in985.1 mb 0.00 in0.0 mm 0.00 in0.0 mm 0.00 in0.0 mm
06:05 AM 51.8°F11.0°C 49.8°F9.9°C 93% Calm Calm -- 29.09 in985.1 mb 0.00 in0.0 mm 0.00 in0.0 mm 0.00 in0.0 mm
05:59 AM 51.8°F11.0°C 49.8°F9.9°C 93% Calm Calm -- 29.09 in985.1 mb 0.00 in0.0 mm 0.00 in0.0 mm 0.00 in0.0 mm
05:53 AM 52.2°F11.2°C 50.2°F10.1°C 93% 0.9 mph NNW1.4 kmh NNW -- 29.09 in985.1 mb 0.00 in0.0 mm 0.00 in0.0 mm 0.00 in0.0 mm
05:47 AM 52.2°F11.2°C 50.5°F10.3°C 94% Calm Calm -- 29.09 in985.1 mb 0.00 in0.0 mm 0.00 in0.0 mm 0.00 in0.0 mm
05:42 AM 52.2°F11.2°C 50.5°F10.3°C 94% 1.4 mph E2.3 kmh E -- 29.08 in984.8 mb 0.00 in0.0 mm 0.00 in0.0 mm 0.00 in0.0 mm
05:36 AM 52.2°F11.2°C 50.5°F10.3°C 94% 2.3 mph E3.7 kmh E -- 29.08 in984.8 mb 0.00 in0.0 mm 0.00 in0.0 mm 0.00 in0.0 mm
05:30 AM 52.2°F11.2°C 50.2°F10.1°C 93% 2.2 mph SSE3.5 kmh SSE -- 29.08 in984.8 mb 0.00 in0.0 mm 0.00 in0.0 mm 0.00 in0.0 mm
05:24 AM 52.3°F11.3°C 50.6°F10.3°C 94% 1.1 mph ESE1.8 kmh ESE -- 29.08 in984.8 mb 0.00 in0.0 mm 0.00 in0.0 mm 0.00 in0.0 mm
05:18 AM 52.3°F11.3°C 50.3°F10.2°C 93% 0.2 mph SSE0.3 kmh SSE -- 29.08 in984.8 mb 0.00 in0.0 mm 0.00 in0.0 mm 0.00 in0.0 mm
05:12 AM 52.2°F11.2°C 50.5°F10.3°C 94% 1.5 mph SSE2.4 kmh SSE -- 29.07 in984.4 mb 0.00 in0.0 mm 0.00 in0.0 mm 0.00 in0.0 mm
05:06 AM 52.2°F11.2°C 50.2°F10.1°C 93% 0.1 mph ESE0.2 kmh ESE -- 29.07 in984.4 mb 0.00 in0.0 mm 0.00 in0.0 mm 0.00 in0.0 mm
05:00 AM 52.0°F11.1°C 50.3°F10.2°C 94% 0.4 mph ENE0.6 kmh ENE -- 29.07 in984.4 mb 0.00 in0.0 mm 0.00 in0.0 mm 0.00 in0.0 mm
04:54 AM 51.8°F11.0°C 50.1°F10.1°C 94% 1.4 mph E2.3 kmh E -- 29.07 in984.4 mb 0.00 in0.0 mm 0.00 in0.0 mm 0.00 in0.0 mm
04:49 AM 51.7°F10.9°C 50.0°F10.0°C 94% 1.4 mph ENE2.3 kmh ENE -- 29.07 in984.4 mb 0.00 in0.0 mm 0.00 in0.0 mm 0.00 in0.0 mm
04:43 AM 51.4°F10.8°C 49.7°F9.8°C 94% 1.1 mph ENE1.8 kmh ENE -- 29.07 in984.4 mb 0.00 in0.0 mm 0.00 in0.0 mm 0.00 in0.0 mm
04:38 AM 51.1°F10.6°C 49.4°F9.7°C 94% 1.1 mph ENE1.8 kmh ENE -- 29.07 in984.4 mb 0.00 in0.0 mm 0.00 in0.0 mm 0.00 in0.0 mm
04:32 AM 50.9°F10.5°C 48.9°F9.4°C 93% 0.1 mph ENE0.2 kmh ENE -- 29.06 in984.1 mb 0.00 in0.0 mm 0.00 in0.0 mm 0.00 in0.0 mm
04:27 AM 50.7°F10.4°C 48.8°F9.3°C 93% 1.0 mph ENE1.6 kmh ENE -- 29.07 in984.4 mb 0.00 in0.0 mm 0.00 in0.0 mm 0.00 in0.0 mm
04:22 AM 50.7°F10.4°C 48.8°F9.3°C 93% 0.1 mph ENE0.2 kmh ENE -- 29.07 in984.4 mb 0.00 in0.0 mm 0.00 in0.0 mm 0.00 in0.0 mm
04:16 AM 50.7°F10.4°C 48.5°F9.2°C 92% Calm Calm -- 29.07 in984.4 mb 0.00 in0.0 mm 0.00 in0.0 mm 0.00 in0.0 mm
04:10 AM 50.7°F10.4°C 48.8°F9.3°C 93% 1.6 mph ENE2.6 kmh ENE -- 29.06 in984.1 mb 0.00 in0.0 mm 0.00 in0.0 mm 0.00 in0.0 mm
04:05 AM 50.7°F10.4°C 48.5°F9.2°C 92% Calm Calm -- 29.07 in984.4 mb 0.00 in0.0 mm 0.00 in0.0 mm 0.00 in0.0 mm
03:59 AM 50.7°F10.4°C 48.5°F9.2°C 92% 0.6 mph ENE1.0 kmh ENE -- 29.07 in984.4 mb 0.00 in0.0 mm 0.00 in0.0 mm 0.00 in0.0 mm
03:54 AM 50.9°F10.5°C 48.7°F9.3°C 92% Calm Calm -- 29.07 in984.4 mb 0.00 in0.0 mm 0.00 in0.0 mm 0.00 in0.0 mm
03:49 AM 51.2°F10.7°C 49.0°F9.4°C 92% Calm Calm -- 29.07 in984.4 mb 0.00 in0.0 mm 0.00 in0.0 mm 0.00 in0.0 mm
03:43 AM 51.5°F10.8°C 49.0°F9.4°C 91% Calm Calm -- 29.07 in984.4 mb 0.00 in0.0 mm 0.00 in0.0 mm 0.00 in0.0 mm
03:37 AM 51.7°F10.9°C 49.5°F9.7°C 92% Calm Calm -- 29.07 in984.4 mb 0.00 in0.0 mm 0.00 in0.0 mm 0.00 in0.0 mm
03:32 AM 51.9°F11.1°C 49.6°F9.8°C 92% Calm Calm -- 29.07 in984.4 mb 0.00 in0.0 mm 0.00 in0.0 mm 0.00 in0.0 mm
03:26 AM 52.2°F11.2°C 49.9°F9.9°C 92% 0.8 mph NNE1.3 kmh NNE -- 29.07 in984.4 mb 0.00 in0.0 mm 0.00 in0.0 mm 0.00 in0.0 mm
03:21 AM 52.5°F11.4°C 50.2°F10.1°C 92% 0.4 mph NNE0.6 kmh NNE -- 29.07 in984.4 mb 0.00 in0.0 mm 0.00 in0.0 mm 0.00 in0.0 mm
03:16 AM 52.7°F11.5°C 50.4°F10.2°C 92% Calm Calm -- 29.07 in984.4 mb 0.00 in0.0 mm 0.00 in0.0 mm 0.00 in0.0 mm
03:11 AM 52.7°F11.5°C 50.1°F10.1°C 91% Calm Calm -- 29.07 in984.4 mb 0.00 in0.0 mm 0.00 in0.0 mm 0.00 in0.0 mm
03:05 AM 52.7°F11.5°C 50.1°F10.1°C 91% 1.0 mph ENE1.6 kmh ENE -- 29.07 in984.4 mb 0.00 in0.0 mm 0.00 in0.0 mm 0.00 in0.0 mm
02:59 AM 52.8°F11.6°C 50.2°F10.1°C 91% Calm Calm -- 29.07 in984.4 mb 0.00 in0.0 mm 0.00 in0.0 mm 0.00 in0.0 mm
02:53 AM 52.8°F11.6°C 50.2°F10.1°C 91% Calm Calm -- 29.07 in984.4 mb 0.00 in0.0 mm 0.00 in0.0 mm 0.00 in0.0 mm
02:47 AM 53.0°F11.7°C 50.1°F10.1°C 90% 0.3 mph ENE0.5 kmh ENE -- 29.07 in984.4 mb 0.00 in0.0 mm 0.00 in0.0 mm 0.00 in0.0 mm
02:41 AM 53.2°F11.8°C 50.0°F10.0°C 89% Calm Calm -- 29.07 in984.4 mb 0.00 in0.0 mm 0.00 in0.0 mm 0.00 in0.0 mm
02:35 AM 53.3°F11.8°C 50.4°F10.2°C 90% Calm Calm -- 29.07 in984.4 mb 0.00 in0.0 mm 0.00 in0.0 mm 0.00 in0.0 mm
02:30 AM 53.5°F11.9°C 50.6°F10.3°C 90% Calm Calm -- 29.07 in984.4 mb 0.00 in0.0 mm 0.00 in0.0 mm 0.00 in0.0 mm
02:25 AM 53.5°F11.9°C 50.0°F10.0°C 88% Calm Calm -- 29.07 in984.4 mb 0.00 in0.0 mm 0.00 in0.0 mm 0.00 in0.0 mm
02:19 AM 53.6°F12.0°C 50.4°F10.2°C 89% 0.9 mph ENE1.4 kmh ENE -- 29.07 in984.4 mb 0.00 in0.0 mm 0.00 in0.0 mm 0.00 in0.0 mm
02:14 AM 53.9°F12.2°C 50.7°F10.4°C 89% 2.0 mph ENE3.2 kmh ENE -- 29.07 in984.4 mb 0.00 in0.0 mm 0.00 in0.0 mm 0.00 in0.0 mm
02:09 AM 54.2°F12.3°C 51.0°F10.6°C 89% 0.6 mph ENE1.0 kmh ENE -- 29.08 in984.8 mb 0.00 in0.0 mm 0.00 in0.0 mm 0.00 in0.0 mm
02:04 AM 54.4°F12.4°C 51.2°F10.7°C 89% 0.8 mph ENE1.3 kmh ENE -- 29.08 in984.8 mb 0.00 in0.0 mm 0.00 in0.0 mm 0.00 in0.0 mm
01:58 AM 54.6°F12.6°C 51.4°F10.8°C 89% 1.4 mph ENE2.3 kmh ENE -- 29.08 in984.8 mb 0.00 in0.0 mm 0.00 in0.0 mm 0.00 in0.0 mm
01:52 AM 54.7°F12.6°C 51.2°F10.7°C 88% 2.2 mph E3.5 kmh E -- 29.08 in984.8 mb 0.00 in0.0 mm 0.00 in0.0 mm 0.00 in0.0 mm
01:46 AM 54.7°F12.6°C 51.2°F10.7°C 88% 1.9 mph ESE3.1 kmh ESE -- 29.08 in984.8 mb 0.00 in0.0 mm 0.00 in0.0 mm 0.00 in0.0 mm
01:40 AM 54.8°F12.7°C 51.0°F10.6°C 87% 2.3 mph ESE3.7 kmh ESE -- 29.08 in984.8 mb 0.00 in0.0 mm 0.00 in0.0 mm 0.00 in0.0 mm
01:34 AM 55.0°F12.8°C 51.5°F10.8°C 88% 2.4 mph ENE3.9 kmh ENE -- 29.08 in984.8 mb 0.00 in0.0 mm 0.00 in0.0 mm 0.00 in0.0 mm
01:29 AM 55.1°F12.8°C 51.3°F10.7°C 87% 1.8 mph ESE2.9 kmh ESE -- 29.08 in984.8 mb 0.00 in0.0 mm 0.00 in0.0 mm 0.00 in0.0 mm
01:23 AM 55.1°F12.8°C 51.3°F10.7°C 87% 2.0 mph ESE3.2 kmh ESE -- 29.08 in984.8 mb 0.00 in0.0 mm 0.00 in0.0 mm 0.00 in0.0 mm
01:18 AM 55.2°F12.9°C 51.4°F10.8°C 87% 2.6 mph E4.2 kmh E -- 29.08 in984.8 mb 0.00 in0.0 mm 0.00 in0.0 mm 0.00 in0.0 mm
01:12 AM 55.3°F12.9°C 51.2°F10.7°C 86% 3.0 mph ESE4.8 kmh ESE -- 29.08 in984.8 mb 0.00 in0.0 mm 0.00 in0.0 mm 0.00 in0.0 mm
01:07 AM 55.3°F12.9°C 51.2°F10.7°C 86% 3.9 mph ESE6.3 kmh ESE -- 29.08 in984.8 mb 0.00 in0.0 mm 0.00 in0.0 mm 0.00 in0.0 mm
01:01 AM 55.4°F13.0°C 51.6°F10.9°C 87% 3.4 mph ESE5.5 kmh ESE -- 29.08 in984.8 mb 0.00 in0.0 mm 0.00 in0.0 mm 0.00 in0.0 mm
12:55 AM 55.6°F13.1°C 51.5°F10.8°C 86% 1.5 mph E2.4 kmh E -- 29.08 in984.8 mb 0.00 in0.0 mm 0.00 in0.0 mm 0.00 in0.0 mm
12:50 AM 55.7°F13.2°C 51.6°F10.9°C 86% 3.0 mph ESE4.8 kmh ESE -- 29.08 in984.8 mb 0.00 in0.0 mm 0.00 in0.0 mm 0.00 in0.0 mm
12:44 AM 55.7°F13.2°C 51.6°F10.9°C 86% 3.3 mph ESE5.3 kmh ESE -- 29.08 in984.8 mb 0.00 in0.0 mm 0.00 in0.0 mm 0.00 in0.0 mm
12:38 AM 55.6°F13.1°C 51.5°F10.8°C 86% 5.0 mph ESE8.0 kmh ESE -- 29.08 in984.8 mb 0.00 in0.0 mm 0.00 in0.0 mm 0.00 in0.0 mm
12:33 AM 55.7°F13.2°C 51.6°F10.9°C 86% 3.7 mph ESE6.0 kmh ESE -- 29.08 in984.8 mb 0.00 in0.0 mm 0.00 in0.0 mm 0.00 in0.0 mm
12:27 AM 55.7°F13.2°C 51.3°F10.7°C 85% 4.4 mph ESE7.1 kmh ESE -- 29.08 in984.8 mb 0.00 in0.0 mm 0.00 in0.0 mm 0.00 in0.0 mm
12:21 AM 55.8°F13.2°C 51.0°F10.6°C 84% 3.2 mph ESE5.1 kmh ESE -- 29.08 in984.8 mb 0.00 in0.0 mm 0.00 in0.0 mm 0.00 in0.0 mm
12:15 AM 56.0°F13.3°C 51.6°F10.9°C 85% 4.4 mph ESE7.1 kmh ESE -- 29.08 in984.8 mb 0.00 in0.0 mm 0.00 in0.0 mm 0.00 in0.0 mm
12:09 AM 56.1°F13.4°C 51.7°F10.9°C 85% 3.9 mph ESE6.3 kmh ESE -- 29.08 in984.8 mb 0.00 in0.0 mm 0.00 in0.0 mm 0.00 in0.0 mm
12:04 AM 56.1°F13.4°C 51.0°F10.6°C 83% 3.9 mph ESE6.3 kmh ESE -- 29.08 in984.8 mb 0.00 in0.0 mm 0.00 in0.0 mm 0.00 in0.0 mm